Time;durP1;ratioP1;P1;durP2;ratioP2;P2;SDS_P1;SDS_P2;PMS_P1;PMS_P2;Temp;Humidity;BMP_temperature;BMP_pressure;BME280_temperature;BME280_humidity;BME280_pressure;Samples;Min_cycle;Max_cycle;Signal;HPM_P1;HPM_P2
2021/11/29 00:00:27;;;;;;;15.97;14.30;;;0.40;99.90;;;;;;5012588;28;20200;-66
2021/11/29 00:02:57;;;;;;;16.63;14.97;;;0.40;99.90;;;;;;5029361;28;20645;-66
2021/11/29 00:05:23;;;;;;;17.27;15.57;;;0.40;99.90;;;;;;5032122;28;20175;-66
2021/11/29 00:07:49;;;;;;;16.63;14.90;;;0.40;99.90;;;;;;5015498;28;20221;-66
2021/11/29 00:10:15;;;;;;;18.13;16.30;;;0.40;99.90;;;;;;5012604;28;20275;-66
2021/11/29 00:12:41;;;;;;;21.40;15.40;;;0.40;99.90;;;;;;5021235;28;20645;-66
2021/11/29 00:15:09;;;;;;;17.40;14.70;;;0.40;99.90;;;;;;5012233;28;20179;-66
2021/11/29 00:17:35;;;;;;;19.23;16.37;;;0.40;99.90;;;;;;5025041;28;20576;-66
2021/11/29 00:20:02;;;;;;;19.03;15.80;;;0.40;99.90;;;;;;5031939;28;20176;-66
2021/11/29 00:22:27;;;;;;;15.30;13.83;;;0.40;99.90;;;;;;5018871;28;20218;-66
2021/11/29 00:24:53;;;;;;;15.60;14.13;;;0.40;99.90;;;;;;5011919;28;20184;-66
2021/11/29 00:27:19;;;;;;;18.10;16.30;;;0.40;99.90;;;;;;5022698;28;20615;-65
2021/11/29 00:29:44;;;;;;;13.90;12.43;;;0.40;99.90;;;;;;5031985;28;20203;-66
2021/11/29 00:32:11;;;;;;;19.00;16.57;;;0.50;99.90;;;;;;5022383;28;20752;-66
2021/11/29 00:34:38;;;;;;;17.13;15.47;;;0.40;99.90;;;;;;5012049;28;20176;-66
2021/11/29 00:37:04;;;;;;;16.67;14.97;;;0.50;99.90;;;;;;5012794;28;20180;-66
2021/11/29 00:39:30;;;;;;;16.50;14.57;;;0.50;99.90;;;;;;5012155;28;20172;-66
2021/11/29 00:41:56;;;;;;;16.30;14.77;;;0.40;99.90;;;;;;5018631;28;20203;-65
2021/11/29 00:44:21;;;;;;;16.30;13.57;;;0.40;99.90;;;;;;5031825;28;20664;-65
2021/11/29 00:46:47;;;;;;;19.27;16.90;;;0.50;99.90;;;;;;5026150;28;20302;-66
2021/11/29 00:49:13;;;;;;;17.00;15.13;;;0.50;99.90;;;;;;5011961;28;20288;-67
2021/11/29 00:51:39;;;;;;;15.57;13.97;;;0.50;99.90;;;;;;5015064;28;20187;-66
2021/11/29 00:54:04;;;;;;;16.10;14.47;;;0.50;99.90;;;;;;5031368;28;20168;-66
2021/11/29 00:56:30;;;;;;;17.70;15.87;;;0.60;99.90;;;;;;5029864;28;20171;-66
2021/11/29 00:58:56;;;;;;;14.97;13.67;;;0.60;99.90;;;;;;4996708;28;20184;-66
2021/11/29 01:01:22;;;;;;;16.90;15.30;;;0.60;99.90;;;;;;5016766;28;20609;-66
2021/11/29 01:03:47;;;;;;;15.37;14.07;;;0.60;99.90;;;;;;5035410;28;20513;-66
2021/11/29 01:06:13;;;;;;;15.27;13.93;;;0.60;99.90;;;;;;5035688;28;20546;-66
2021/11/29 01:08:39;;;;;;;13.87;12.50;;;0.60;99.90;;;;;;5016315;28;20200;-66
2021/11/29 01:11:05;;;;;;;13.03;11.97;;;0.60;99.90;;;;;;5015517;28;20223;-66
2021/11/29 01:13:32;;;;;;;14.23;12.83;;;0.60;99.90;;;;;;5032515;28;20516;-66
2021/11/29 01:15:58;;;;;;;17.53;15.27;;;0.60;99.90;;;;;;5008901;28;20185;-66
2021/11/29 01:18:23;;;;;;;14.33;13.10;;;0.60;99.90;;;;;;5035618;28;20183;-66
2021/11/29 01:20:49;;;;;;;15.30;13.90;;;0.60;99.90;;;;;;5020957;28;20234;-66
2021/11/29 01:23:16;;;;;;;12.20;11.30;;;0.70;99.90;;;;;;5015284;28;20185;-66
2021/11/29 01:25:42;;;;;;;17.50;15.83;;;0.70;99.90;;;;;;5027558;28;20175;-66
2021/11/29 01:28:08;;;;;;;13.77;12.70;;;0.70;99.90;;;;;;5017552;28;20210;-66
2021/11/29 01:30:35;;;;;;;15.27;13.87;;;0.80;99.90;;;;;;5023264;28;20577;-66
2021/11/29 01:33:01;;;;;;;15.27;13.97;;;0.70;99.90;;;;;;5014956;28;20255;-66
2021/11/29 01:35:27;;;;;;;16.67;14.97;;;0.80;99.90;;;;;;5025308;28;20310;-65
2021/11/29 01:37:53;;;;;;;16.70;15.10;;;0.80;99.90;;;;;;5034882;28;20262;-66
2021/11/29 01:40:19;;;;;;;17.37;14.83;;;0.80;99.90;;;;;;5029054;28;20194;-65
2021/11/29 01:42:56;;;;;;;13.53;12.40;;;0.80;99.90;;;;;;5024310;28;20416;-66
2021/11/29 01:45:22;;;;;;;16.20;14.70;;;0.80;99.90;;;;;;5033717;28;20171;-65
2021/11/29 01:47:48;;;;;;;13.03;12.03;;;0.80;99.90;;;;;;5029394;28;20547;-65
2021/11/29 01:50:13;;;;;;;14.53;13.13;;;0.80;99.90;;;;;;5019884;28;20178;-65
2021/11/29 01:52:39;;;;;;;13.47;12.47;;;0.80;99.90;;;;;;5021371;28;20638;-64
2021/11/29 01:55:05;;;;;;;15.47;14.07;;;0.80;99.90;;;;;;4997162;28;20183;-65
2021/11/29 01:57:31;;;;;;;14.57;13.07;;;0.80;99.90;;;;;;5015639;28;20184;-65
2021/11/29 01:59:57;;;;;;;11.80;10.97;;;0.80;99.90;;;;;;5034607;28;20279;-65
2021/11/29 02:02:27;;;;;;;12.10;11.20;;;0.70;99.90;;;;;;5016712;28;20171;-65
2021/11/29 02:04:55;;;;;;;12.33;11.23;;;0.70;99.90;;;;;;5014545;28;20180;-65
2021/11/29 02:07:20;;;;;;;11.47;10.77;;;0.70;99.90;;;;;;5014708;28;20258;-65
2021/11/29 02:09:46;;;;;;;14.03;11.47;;;0.60;99.90;;;;;;5032257;28;20298;-65
2021/11/29 02:12:12;;;;;;;13.67;12.53;;;0.50;99.90;;;;;;5034002;28;20184;-66
2021/11/29 02:14:38;;;;;;;13.50;12.20;;;0.50;99.90;;;;;;5016500;28;20180;-66
2021/11/29 02:17:06;;;;;;;13.23;12.13;;;0.50;99.90;;;;;;5014415;28;20168;-65
2021/11/29 02:19:41;;;;;;;13.10;12.10;;;0.40;99.90;;;;;;5030711;28;20180;-65
2021/11/29 02:22:07;;;;;;;13.57;12.37;;;0.40;99.90;;;;;;5033929;28;20230;-65
2021/11/29 02:24:33;;;;;;;13.03;12.00;;;0.40;99.90;;;;;;5000441;28;20180;-65
2021/11/29 02:26:58;;;;;;;15.30;14.00;;;0.40;99.90;;;;;;5014415;28;20172;-64
2021/11/29 02:29:24;;;;;;;12.20;11.47;;;0.40;99.90;;;;;;5029038;28;20214;-64
2021/11/29 02:31:50;;;;;;;14.03;13.03;;;0.40;99.90;;;;;;5031923;28;20298;-63
2021/11/29 02:34:28;;;;;;;15.50;14.17;;;0.40;99.90;;;;;;4996257;28;20187;-64
2021/11/29 02:36:56;;;;;;;11.63;10.77;;;0.40;99.90;;;;;;5015946;28;20238;-66
2021/11/29 02:39:22;;;;;;;13.87;12.67;;;0.30;99.90;;;;;;5033899;28;20168;-65
2021/11/29 02:41:49;;;;;;;33.77;13.43;;;0.40;99.90;;;;;;5015458;28;20623;-65
2021/11/29 02:44:16;;;;;;;13.50;12.63;;;0.40;99.90;;;;;;5013878;28;20180;-66
2021/11/29 02:46:43;;;;;;;11.57;10.77;;;0.50;99.90;;;;;;5015242;28;20528;-65
2021/11/29 02:49:10;;;;;;;12.73;11.90;;;0.50;99.90;;;;;;5013562;28;20196;-67
2021/11/29 02:51:40;;;;;;;13.17;12.20;;;0.50;99.90;;;;;;5011427;28;20256;-66
2021/11/29 02:54:13;;;;;;;11.57;10.77;;;0.50;99.90;;;;;;5013558;28;20172;-65
2021/11/29 02:56:42;;;;;;;11.17;10.37;;;0.60;99.90;;;;;;5032646;28;20171;-64
2021/11/29 02:59:19;;;;;;;12.70;11.57;;;0.60;99.90;;;;;;5033263;28;20306;-65
2021/11/29 03:01:47;;;;;;;11.63;10.87;;;0.80;99.90;;;;;;5014398;28;20728;-65
2021/11/29 03:04:13;;;;;;;11.23;10.43;;;0.80;99.90;;;;;;5013444;28;20264;-65
2021/11/29 03:06:39;;;;;;;12.13;11.03;;;0.90;99.90;;;;;;5030729;28;20607;-65
2021/11/29 03:09:05;;;;;;;12.43;11.53;;;1.00;99.90;;;;;;5033215;28;20214;-66
2021/11/29 03:11:31;;;;;;;12.17;11.07;;;1.10;99.90;;;;;;4998897;28;20678;-65
2021/11/29 03:13:57;;;;;;;10.67;9.77;;;1.10;99.90;;;;;;5013347;28;20189;-67
2021/11/29 03:16:23;;;;;;;12.37;11.30;;;1.20;99.90;;;;;;5028010;28;20180;-65
2021/11/29 03:18:49;;;;;;;11.77;10.77;;;1.20;99.90;;;;;;5032989;28;20649;-65
2021/11/29 03:21:18;;;;;;;10.90;10.07;;;1.30;99.90;;;;;;5018983;28;20266;-65
2021/11/29 03:23:47;;;;;;;11.93;11.13;;;1.30;99.90;;;;;;5012966;28;20180;-65
2021/11/29 03:26:18;;;;;;;11.53;10.40;;;1.30;99.90;;;;;;5025373;28;20603;-65
2021/11/29 03:28:45;;;;;;;11.47;10.60;;;1.30;99.90;;;;;;5032759;28;20203;-65
2021/11/29 03:31:12;;;;;;;12.23;11.33;;;1.30;99.90;;;;;;5018790;28;20204;-66
2021/11/29 03:33:40;;;;;;;12.17;11.37;;;1.30;99.90;;;;;;5012700;28;20252;-65
2021/11/29 03:36:06;;;;;;;11.73;10.87;;;1.30;99.90;;;;;;5023896;28;20195;-66
2021/11/29 03:38:32;;;;;;;10.60;9.83;;;1.20;99.90;;;;;;5032716;28;20175;-65
2021/11/29 03:40:59;;;;;;;12.23;11.33;;;1.20;99.90;;;;;;5020712;28;20227;-65
2021/11/29 03:43:25;;;;;;;12.23;11.00;;;1.20;99.90;;;;;;5012571;28;20179;-65
2021/11/29 03:45:51;;;;;;;10.93;10.13;;;1.20;99.90;;;;;;5022536;28;20176;-65
2021/11/29 03:48:17;;;;;;;13.53;10.37;;;1.20;99.90;;;;;;5032399;28;20787;-64
2021/11/29 03:50:43;;;;;;;12.97;12.00;;;1.20;99.90;;;;;;5023980;28;20199;-65
2021/11/29 03:53:09;;;;;;;11.93;10.83;;;1.10;99.90;;;;;;4994796;28;20172;-65
2021/11/29 03:55:35;;;;;;;12.83;11.83;;;1.10;99.90;;;;;;5020085;28;20175;-65
2021/11/29 03:58:00;;;;;;;11.23;10.50;;;1.00;99.90;;;;;;5032337;28;20167;-65
2021/11/29 04:00:26;;;;;;;11.70;10.60;;;0.90;99.90;;;;;;5026244;28;20204;-65
2021/11/29 04:02:52;;;;;;;11.50;10.70;;;0.90;99.90;;;;;;5012077;28;20184;-65
2021/11/29 04:05:18;;;;;;;11.37;10.57;;;0.80;99.90;;;;;;5016521;28;20238;-65
2021/11/29 04:07:44;;;;;;;10.73;9.87;;;0.80;99.90;;;;;;5032059;28;20168;-66
2021/11/29 04:10:10;;;;;;;12.67;11.77;;;0.70;99.90;;;;;;5029323;28;20552;-65
2021/11/29 04:12:36;;;;;;;12.87;11.80;;;0.70;99.90;;;;;;5017852;28;20171;-65
2021/11/29 04:15:03;;;;;;;11.70;10.73;;;0.70;99.90;;;;;;5030924;28;20182;-67
2021/11/29 04:17:28;;;;;;;10.40;9.70;;;0.60;99.90;;;;;;5012177;28;20180;-64
2021/11/29 04:19:54;;;;;;;11.60;10.67;;;0.60;99.90;;;;;;5012467;28;20184;-65
2021/11/29 04:22:20;;;;;;;12.63;11.63;;;0.60;99.90;;;;;;5030946;28;20226;-64
2021/11/29 04:24:47;;;;;;;10.60;9.80;;;0.60;99.90;;;;;;5031919;28;20184;-66
2021/11/29 04:27:13;;;;;;;11.23;10.43;;;0.50;99.90;;;;;;5013922;28;20180;-65
2021/11/29 04:29:41;;;;;;;10.00;9.40;;;0.50;99.90;;;;;;5011977;28;20318;-66
2021/11/29 04:32:08;;;;;;;11.00;10.20;;;0.40;99.90;;;;;;5028589;28;20249;-66
2021/11/29 04:34:34;;;;;;;12.40;11.13;;;0.40;99.90;;;;;;5013499;28;20183;-65
2021/11/29 04:37:02;;;;;;;13.60;12.50;;;0.40;99.90;;;;;;5016073;28;20573;-65
2021/11/29 04:39:29;;;;;;;10.67;10.07;;;0.40;99.90;;;;;;5012310;28;20173;-65
2021/11/29 04:41:54;;;;;;;11.30;10.60;;;0.40;99.90;;;;;;5026339;28;20203;-64
2021/11/29 04:44:20;;;;;;;11.33;10.63;;;0.40;99.90;;;;;;5031739;28;20171;-65
2021/11/29 04:46:45;;;;;;;11.67;10.87;;;0.50;99.90;;;;;;5018897;28;20535;-66
2021/11/29 04:49:11;;;;;;;11.93;11.03;;;0.50;99.90;;;;;;5011677;28;20200;-65
2021/11/29 04:51:37;;;;;;;13.83;11.67;;;0.50;99.90;;;;;;5023191;28;20195;-65
2021/11/29 04:54:03;;;;;;;12.77;11.67;;;0.60;99.90;;;;;;5031428;28;20645;-65
2021/11/29 04:56:29;;;;;;;11.33;10.53;;;0.60;99.90;;;;;;5021010;28;20544;-65
2021/11/29 04:58:55;;;;;;;12.57;11.33;;;0.50;99.90;;;;;;5011658;28;20173;-66
2021/11/29 05:01:22;;;;;;;11.83;11.00;;;0.50;99.90;;;;;;5019941;28;20210;-65
2021/11/29 05:03:47;;;;;;;13.40;10.00;;;0.50;99.90;;;;;;5031015;28;20180;-65
2021/11/29 05:06:13;;;;;;;11.20;10.40;;;0.40;99.90;;;;;;5024125;28;20183;-65
2021/11/29 05:08:39;;;;;;;11.17;10.47;;;0.40;99.90;;;;;;5011460;28;20196;-65
2021/11/29 05:11:05;;;;;;;12.50;11.47;;;0.40;99.90;;;;;;5017436;28;20207;-65
2021/11/29 05:13:31;;;;;;;12.00;10.90;;;0.40;99.90;;;;;;5030891;28;20171;-65
2021/11/29 05:15:57;;;;;;;11.03;10.23;;;0.40;99.90;;;;;;5026540;28;20176;-65
2021/11/29 05:18:23;;;;;;;10.87;10.13;;;0.40;99.90;;;;;;4993943;28;20203;-65
2021/11/29 05:20:48;;;;;;;12.47;11.57;;;0.40;99.90;;;;;;5014021;28;20203;-65
2021/11/29 05:23:16;;;;;;;12.33;11.37;;;0.50;99.90;;;;;;5030908;28;20174;-65
2021/11/29 05:25:42;;;;;;;11.20;10.40;;;0.50;99.90;;;;;;5028845;28;20170;-65
2021/11/29 05:28:07;;;;;;;12.90;11.47;;;0.50;99.90;;;;;;5011455;28;20200;-64
2021/11/29 05:30:33;;;;;;;12.97;11.73;;;0.50;99.90;;;;;;5011628;28;20215;-65
2021/11/29 05:32:59;;;;;;;11.73;10.73;;;0.60;99.90;;;;;;5030888;28;20203;-66
2021/11/29 05:35:24;;;;;;;10.87;10.07;;;0.60;99.90;;;;;;5031282;28;20222;-65
2021/11/29 05:37:50;;;;;;;11.57;10.77;;;0.70;99.90;;;;;;5012050;28;20255;-65
2021/11/29 05:40:16;;;;;;;11.03;10.13;;;0.70;99.90;;;;;;5011351;28;20278;-65
2021/11/29 05:42:43;;;;;;;11.27;10.40;;;0.70;99.90;;;;;;5011638;28;20522;-65
2021/11/29 05:45:09;;;;;;;13.13;11.93;;;0.70;99.90;;;;;;5013587;28;20173;-65
2021/11/29 05:47:36;;;;;;;13.67;11.37;;;0.80;99.90;;;;;;5030250;28;20217;-65
2021/11/29 05:50:06;;;;;;;12.87;11.40;;;0.80;99.90;;;;;;5034628;28;20200;-66
2021/11/29 05:52:33;;;;;;;13.27;12.10;;;0.80;99.90;;;;;;5021904;28;20235;-65
2021/11/29 05:54:59;;;;;;;12.50;11.43;;;0.70;99.90;;;;;;5014784;28;20184;-65
2021/11/29 05:57:24;;;;;;;13.73;12.53;;;0.70;99.90;;;;;;5014716;28;20179;-64
2021/11/29 05:59:50;;;;;;;12.20;11.37;;;0.70;99.90;;;;;;5014717;28;20180;-65
2021/11/29 06:02:16;;;;;;;14.90;12.57;;;0.70;99.90;;;;;;5014427;28;20257;-65
2021/11/29 06:04:41;;;;;;;11.30;10.43;;;0.80;99.90;;;;;;5033708;28;20187;-66
2021/11/29 06:07:07;;;;;;;15.30;12.87;;;0.80;99.90;;;;;;5034218;28;20178;-65
2021/11/29 06:09:32;;;;;;;12.67;11.87;;;0.80;99.90;;;;;;5016521;28;20210;-63
2021/11/29 06:11:58;;;;;;;12.27;11.27;;;0.90;99.90;;;;;;5014302;28;20196;-65
2021/11/29 06:14:26;;;;;;;14.87;12.10;;;1.00;99.90;;;;;;5031115;28;20274;-65
2021/11/29 06:16:53;;;;;;;12.90;11.90;;;1.00;99.90;;;;;;5034285;28;20582;-65
2021/11/29 06:19:19;;;;;;;12.37;11.40;;;1.00;99.90;;;;;;5018796;28;20176;-64
2021/11/29 06:21:44;;;;;;;15.03;13.73;;;1.00;99.90;;;;;;5015556;28;20218;-65
2021/11/29 06:24:10;;;;;;;14.53;13.07;;;1.00;99.90;;;;;;5034104;28;20176;-65
2021/11/29 06:26:36;;;;;;;14.33;12.93;;;1.10;99.90;;;;;;5016325;28;20262;-65
2021/11/29 06:29:02;;;;;;;14.67;13.17;;;1.10;99.90;;;;;;4996665;28;20204;-65
2021/11/29 06:31:28;;;;;;;14.20;12.70;;;1.10;99.90;;;;;;5013812;28;20242;-65
2021/11/29 06:33:53;;;;;;;12.43;11.40;;;1.20;99.90;;;;;;5031794;28;20645;-65
2021/11/29 06:36:19;;;;;;;13.50;12.30;;;1.20;99.90;;;;;;5014130;28;20638;-65
2021/11/29 06:38:47;;;;;;;12.07;11.17;;;1.20;99.90;;;;;;5030781;28;20262;-66
2021/11/29 06:41:13;;;;;;;15.70;14.13;;;1.20;99.90;;;;;;5033618;28;20195;-65
2021/11/29 06:43:39;;;;;;;13.70;12.37;;;1.20;99.90;;;;;;4999524;28;20278;-65
2021/11/29 06:46:04;;;;;;;16.47;14.53;;;1.30;99.90;;;;;;5013898;28;20183;-66
2021/11/29 06:48:30;;;;;;;13.57;12.17;;;1.20;99.90;;;;;;5027582;28;20252;-66
2021/11/29 06:50:56;;;;;;;13.37;12.03;;;1.20;99.90;;;;;;5033553;28;20260;-65
2021/11/29 06:53:23;;;;;;;13.67;12.57;;;1.20;99.90;;;;;;5002070;28;20185;-65
2021/11/29 06:55:49;;;;;;;15.20;13.30;;;1.20;99.90;;;;;;4995449;28;20528;-65
2021/11/29 06:58:15;;;;;;;15.67;13.43;;;1.20;99.90;;;;;;5025291;28;20190;-65
2021/11/29 07:00:40;;;;;;;14.33;12.87;;;1.20;99.90;;;;;;5033189;28;20202;-65
2021/11/29 07:03:06;;;;;;;14.93;13.40;;;1.20;99.90;;;;;;5005121;28;20196;-64
2021/11/29 07:05:32;;;;;;;15.57;14.00;;;1.30;99.90;;;;;;5013414;28;20307;-65
2021/11/29 07:07:57;;;;;;;24.33;15.17;;;1.30;99.90;;;;;;5021400;28;20671;-65
2021/11/29 07:10:24;;;;;;;17.93;15.73;;;1.30;99.90;;;;;;5033218;28;20539;-66
2021/11/29 07:12:51;;;;;;;20.17;13.53;;;1.30;99.90;;;;;;5007115;28;20176;-65
2021/11/29 07:15:18;;;;;;;13.63;12.27;;;1.40;99.90;;;;;;5013275;28;20195;-65
2021/11/29 07:17:43;;;;;;;15.80;14.13;;;1.30;99.90;;;;;;5001832;28;20580;-65
2021/11/29 07:20:10;;;;;;;14.77;13.43;;;1.30;99.90;;;;;;5033109;28;20187;-65
2021/11/29 07:22:36;;;;;;;19.63;12.50;;;1.40;99.90;;;;;;5009946;28;20184;-64
2021/11/29 07:25:04;;;;;;;16.37;13.53;;;1.40;99.90;;;;;;5013271;28;20180;-65
2021/11/29 07:27:31;;;;;;;15.37;12.93;;;1.40;99.90;;;;;;4998376;28;20175;-64
2021/11/29 07:29:57;;;;;;;12.57;11.20;;;1.40;99.90;;;;;;5014889;28;20526;-65
2021/11/29 07:32:23;;;;;;;11.53;10.57;;;1.40;99.90;;;;;;5029508;28;20181;-64
2021/11/29 07:34:51;;;;;;;16.13;13.70;;;1.40;99.90;;;;;;5012965;28;20172;-64
2021/11/29 07:37:19;;;;;;;21.87;16.10;;;1.40;99.90;;;;;;5014078;28;20208;-64
2021/11/29 07:39:47;;;;;;;15.67;12.97;;;1.40;99.90;;;;;;5032522;28;20201;-66
2021/11/29 07:42:13;;;;;;;19.80;13.77;;;1.40;99.90;;;;;;5031149;28;20210;-65
2021/11/29 07:44:38;;;;;;;17.50;13.63;;;1.40;99.90;;;;;;5012425;28;20258;-65
2021/11/29 07:47:04;;;;;;;19.00;14.90;;;1.40;99.90;;;;;;5010649;28;20272;-65
2021/11/29 07:49:30;;;;;;;16.67;13.80;;;1.40;99.90;;;;;;5028214;28;20215;-65
2021/11/29 07:51:56;;;;;;;17.83;12.30;;;1.40;99.90;;;;;;5031985;28;20558;-65
2021/11/29 07:54:21;;;;;;;14.17;12.87;;;1.40;99.90;;;;;;5014663;28;20184;-65
2021/11/29 07:56:47;;;;;;;17.53;15.20;;;1.40;99.90;;;;;;5012305;28;20602;-65
2021/11/29 07:59:13;;;;;;;11.50;10.67;;;1.50;99.90;;;;;;5016266;28;20196;-64
2021/11/29 08:01:39;;;;;;;16.77;14.93;;;1.50;99.90;;;;;;5012238;28;20275;-65
2021/11/29 08:04:04;;;;;;;19.00;15.30;;;1.50;99.90;;;;;;5025850;28;20187;-65
2021/11/29 08:06:30;;;;;;;21.67;14.47;;;1.50;99.90;;;;;;5032232;28;20171;-64
2021/11/29 08:08:56;;;;;;;19.23;14.93;;;1.50;99.90;;;;;;5019440;28;20295;-64
2021/11/29 08:11:23;;;;;;;19.47;13.60;;;1.50;99.90;;;;;;5011799;28;20292;-65
2021/11/29 08:13:49;;;;;;;18.77;14.63;;;1.50;99.90;;;;;;5022919;28;20180;-65
2021/11/29 08:16:16;;;;;;;15.07;13.33;;;1.60;99.90;;;;;;5032030;28;20255;-65
2021/11/29 08:18:42;;;;;;;19.40;15.53;;;1.70;99.90;;;;;;5021701;28;20176;-65
2021/11/29 08:21:08;;;;;;;15.87;12.67;;;1.80;99.90;;;;;;4994419;28;20196;-64
2021/11/29 08:23:34;;;;;;;16.97;11.93;;;1.90;99.90;;;;;;5001983;28;20210;-64
2021/11/29 08:26:00;;;;;;;22.57;15.47;;;1.90;99.90;;;;;;5014296;28;20669;-64
2021/11/29 08:28:26;;;;;;;24.37;15.63;;;2.00;99.90;;;;;;5025054;28;20200;-64
2021/11/29 08:30:52;;;;;;;17.97;13.53;;;2.00;99.90;;;;;;5012218;28;20211;-65
2021/11/29 08:33:18;;;;;;;20.73;16.43;;;2.00;99.90;;;;;;4999225;28;20182;-65
2021/11/29 08:35:46;;;;;;;17.50;14.07;;;2.10;99.90;;;;;;5013652;28;20171;-65
2021/11/29 08:38:15;;;;;;;22.13;15.37;;;2.10;99.90;;;;;;5027095;28;20187;-65
2021/11/29 08:40:42;;;;;;;18.13;14.67;;;2.20;99.90;;;;;;5011657;28;20677;-64
2021/11/29 08:43:12;;;;;;;17.93;14.87;;;2.10;99.90;;;;;;5014377;28;20314;-64
2021/11/29 08:45:39;;;;;;;14.23;12.73;;;2.10;99.90;;;;;;5031274;28;20190;-65
2021/11/29 08:48:07;;;;;;;18.03;13.37;;;2.00;99.90;;;;;;5011262;28;20298;-64
2021/11/29 08:50:35;;;;;;;16.23;13.13;;;2.10;99.90;;;;;;5014764;28;20480;-64
2021/11/29 08:53:09;;;;;;;17.10;13.73;;;2.30;99.90;;;;;;5011306;28;20187;-65
2021/11/29 08:55:35;;;;;;;14.80;12.67;;;2.50;99.90;;;;;;5011619;28;20189;-65
2021/11/29 08:58:03;;;;;;;26.17;17.07;;;2.70;99.90;;;;;;5011750;28;20259;-65
2021/11/29 09:00:29;;;;;;;16.17;14.33;;;3.10;99.90;;;;;;5026025;28;20205;-65
2021/11/29 09:02:55;;;;;;;16.07;14.47;;;3.40;99.90;;;;;;5031026;28;20649;-65
2021/11/29 09:05:21;;;;;;;18.97;16.37;;;3.50;99.90;;;;;;5018382;28;20215;-65
2021/11/29 09:07:47;;;;;;;16.50;13.60;;;3.40;99.90;;;;;;5011394;28;20172;-65
2021/11/29 09:10:13;;;;;;;17.03;14.27;;;3.40;99.90;;;;;;5005661;28;20774;-65
2021/11/29 09:12:40;;;;;;;15.50;14.10;;;3.40;99.90;;;;;;5031086;28;20180;-65
2021/11/29 09:15:09;;;;;;;17.33;14.00;;;3.50;99.90;;;;;;5020629;28;20283;-65
2021/11/29 09:17:35;;;;;;;18.13;15.37;;;3.50;99.90;;;;;;5011203;28;20183;-65
2021/11/29 09:20:02;;;;;;;16.37;13.10;;;3.40;99.90;;;;;;5022728;28;20214;-64
2021/11/29 09:22:28;;;;;;;17.47;14.23;;;3.30;99.90;;;;;;5034791;28;20183;-64
2021/11/29 09:24:53;;;;;;;14.97;13.20;;;3.30;99.90;;;;;;5027291;28;20192;-65
2021/11/29 09:27:19;;;;;;;15.37;13.30;;;3.20;99.90;;;;;;4997470;28;20555;-65
2021/11/29 09:29:49;;;;;;;15.83;14.13;;;3.10;99.90;;;;;;5021383;28;20199;-64
2021/11/29 09:32:15;;;;;;;15.60;13.90;;;3.10;99.90;;;;;;5034552;28;20211;-65
2021/11/29 09:34:41;;;;;;;14.73;13.27;;;3.20;99.90;;;;;;5028971;28;20202;-64
2021/11/29 09:37:06;;;;;;;13.57;12.10;;;3.20;99.90;;;;;;5015051;28;20176;-64
2021/11/29 09:39:32;;;;;;;17.43;14.13;;;3.10;99.90;;;;;;5018124;28;20474;-64
2021/11/29 09:41:58;;;;;;;14.80;13.53;;;3.00;99.90;;;;;;5029237;28;20301;-65
2021/11/29 09:44:24;;;;;;;13.80;12.47;;;3.00;99.90;;;;;;5021236;28;20558;-65
2021/11/29 09:46:49;;;;;;;12.97;10.93;;;2.90;99.90;;;;;;5014638;28;20199;-65
2021/11/29 09:49:15;;;;;;;10.27;9.47;;;2.90;99.90;;;;;;5022175;28;20243;-65
2021/11/29 09:51:41;;;;;;;12.23;11.03;;;2.80;99.90;;;;;;5021171;28;20680;-64
2021/11/29 09:54:08;;;;;;;13.60;12.27;;;2.80;99.90;;;;;;5025555;28;20211;-64
2021/11/29 09:56:35;;;;;;;13.47;12.23;;;2.70;99.90;;;;;;4996985;28;20176;-65
2021/11/29 09:59:02;;;;;;;14.10;12.63;;;2.70;99.90;;;;;;5027860;28;20558;-66
2021/11/29 10:01:28;;;;;;;12.77;11.47;;;2.70;99.90;;;;;;5014454;28;20200;-65
2021/11/29 10:03:54;;;;;;;14.93;13.57;;;2.70;99.90;;;;;;5017030;28;20198;-65
2021/11/29 10:06:19;;;;;;;13.53;12.33;;;2.60;99.90;;;;;;5014601;28;20646;-65
2021/11/29 10:08:45;;;;;;;15.03;12.50;;;2.60;99.90;;;;;;5014997;28;20213;-65
2021/11/29 10:11:17;;;;;;;12.73;11.67;;;2.60;99.90;;;;;;5016613;28;20199;-65
2021/11/29 10:13:56;;;;;;;14.27;13.07;;;2.70;99.90;;;;;;5023397;28;20180;-66
2021/11/29 10:16:44;;;;;;;13.60;12.30;;;2.70;99.90;;;;;;5014686;28;20241;-66
2021/11/29 10:19:31;;;;;;;16.50;13.33;;;2.80;99.90;;;;;;4988189;28;20270;-66
2021/11/29 10:22:20;;;;;;;15.37;13.80;;;2.90;99.90;;;;;;5001197;28;20573;-65
2021/11/29 10:24:49;;;;;;;15.17;13.87;;;2.90;99.90;;;;;;5024740;28;20552;-65
2021/11/29 10:27:14;;;;;;;12.67;11.33;;;3.10;99.90;;;;;;5033795;28;20206;-65
2021/11/29 10:29:50;;;;;;;13.43;11.73;;;3.30;99.90;;;;;;5023914;28;20243;-65
2021/11/29 10:32:40;;;;;;;13.03;11.67;;;3.40;99.90;;;;;;5001653;28;20218;-63
2021/11/29 10:35:10;;;;;;;11.27;10.37;;;3.30;99.90;;;;;;5014327;28;20597;-65
2021/11/29 10:37:37;;;;;;;10.87;10.07;;;3.20;99.90;;;;;;5014708;28;20176;-65
2021/11/29 10:40:09;;;;;;;12.57;11.57;;;3.20;99.90;;;;;;5014064;28;20243;-64
2021/11/29 10:42:35;;;;;;;12.80;11.37;;;3.20;99.90;;;;;;5019144;28;20410;-65
2021/11/29 10:45:01;;;;;;;12.07;10.97;;;3.30;99.90;;;;;;5022399;28;20187;-64
2021/11/29 10:47:27;;;;;;;12.57;11.57;;;3.40;99.90;;;;;;5033443;28;20225;-64
2021/11/29 10:49:58;;;;;;;16.37;11.37;;;3.50;99.90;;;;;;5019761;28;20208;-64
2021/11/29 10:52:29;;;;;;;11.60;10.00;;;3.50;99.90;;;;;;5026822;28;20209;-64
2021/11/29 10:54:57;;;;;;;10.23;9.53;;;3.50;99.90;;;;;;5019494;28;20192;-65
2021/11/29 10:57:24;;;;;;;11.27;10.43;;;3.50;99.90;;;;;;5018968;28;20226;-65
2021/11/29 10:59:53;;;;;;;11.13;10.33;;;3.50;99.90;;;;;;5033191;28;20658;-64
2021/11/29 11:02:22;;;;;;;9.70;9.00;;;3.50;99.90;;;;;;5033107;28;20206;-65
2021/11/29 11:05:00;;;;;;;10.33;9.73;;;3.50;99.90;;;;;;5033129;28;20175;-65
2021/11/29 11:07:26;;;;;;;9.70;9.07;;;3.50;99.90;;;;;;5033028;28;20655;-64
2021/11/29 11:09:55;;;;;;;10.77;9.83;;;3.50;99.90;;;;;;5032947;28;20242;-64
2021/11/29 11:12:24;;;;;;;10.90;10.30;;;3.50;99.90;;;;;;5028538;28;20540;-64
2021/11/29 11:14:53;;;;;;;9.60;9.00;;;3.50;99.90;;;;;;5024091;28;20177;-64
2021/11/29 11:17:31;;;;;;;10.47;9.47;;;3.50;99.90;;;;;;5013232;28;20180;-64
2021/11/29 11:20:01;;;;;;;10.80;9.97;;;3.50;99.90;;;;;;4996856;28;20250;-64
2021/11/29 11:22:35;;;;;;;9.83;9.13;;;3.50;99.90;;;;;;4993679;28;20184;-64
2021/11/29 11:25:10;;;;;;;10.90;10.10;;;3.50;99.90;;;;;;4986321;28;20222;-64
2021/11/29 11:27:39;;;;;;;10.00;9.20;;;3.60;99.90;;;;;;5031637;28;20199;-64
2021/11/29 11:30:11;;;;;;;8.97;8.43;;;3.60;99.90;;;;;;5016011;28;20207;-65
2021/11/29 11:32:40;;;;;;;9.73;9.13;;;3.60;99.90;;;;;;5012565;28;20638;-64
2021/11/29 11:35:12;;;;;;;10.20;9.17;;;3.70;99.90;;;;;;5021130;28;20176;-65
2021/11/29 11:37:41;;;;;;;10.10;9.50;;;3.70;99.90;;;;;;5032261;28;20171;-65
2021/11/29 11:40:12;;;;;;;10.07;9.20;;;3.60;99.90;;;;;;5017224;28;20184;-65
2021/11/29 11:42:38;;;;;;;12.03;10.83;;;3.60;99.90;;;;;;5012081;28;20230;-64
2021/11/29 11:45:09;;;;;;;11.87;10.80;;;3.60;99.90;;;;;;5026817;28;20602;-64
2021/11/29 11:47:36;;;;;;;12.33;11.30;;;3.60;99.90;;;;;;5032131;28;20203;-65
2021/11/29 11:50:04;;;;;;;10.60;9.97;;;3.50;99.90;;;;;;5001352;28;20258;-66
2021/11/29 11:52:30;;;;;;;11.67;10.73;;;3.60;99.90;;;;;;5012144;28;20176;-65
2021/11/29 11:54:58;;;;;;;12.47;11.57;;;3.60;99.90;;;;;;5031583;28;20190;-66
2021/11/29 11:57:25;;;;;;;12.10;10.93;;;3.70;99.90;;;;;;5032126;28;20168;-65
2021/11/29 12:00:19;;;;;;;14.43;10.30;;;3.70;99.90;;;;;;5013630;28;20184;-65
2021/11/29 12:02:45;;;;;;;12.37;10.83;;;3.80;99.90;;;;;;4995556;28;20190;-66
2021/11/29 12:05:17;;;;;;;11.43;10.50;;;3.80;99.90;;;;;;5032149;28;20201;-66
2021/11/29 12:07:45;;;;;;;10.80;9.83;;;3.90;99.90;;;;;;5031336;28;20187;-65
2021/11/29 12:10:28;;;;;;;9.57;9.00;;;4.00;99.90;;;;;;5031320;28;20215;-66
2021/11/29 12:13:13;;;;;;;10.70;9.90;;;4.00;99.90;;;;;;5028886;28;20580;-65
2021/11/29 12:15:51;;;;;;;10.03;9.33;;;4.00;99.90;;;;;;5011988;28;20607;-65
2021/11/29 12:18:41;;;;;;;11.93;10.60;;;4.10;99.90;;;;;;5016416;28;20186;-66
2021/11/29 12:21:27;;;;;;;8.70;8.20;;;4.20;99.90;;;;;;5012023;28;20375;-65
2021/11/29 12:24:03;;;;;;;10.07;9.33;;;4.20;99.90;;;;;;5025174;28;20191;-66
2021/11/29 12:26:55;;;;;;;11.43;10.53;;;4.30;99.90;;;;;;5031740;28;20211;-65
2021/11/29 12:29:20;;;;;;;9.37;8.77;;;4.50;99.90;;;;;;5028947;28;20226;-66
2021/11/29 12:32:01;;;;;;;9.23;8.63;;;4.60;99.90;;;;;;5011773;28;20245;-65
2021/11/29 12:34:53;;;;;;;8.53;8.03;;;4.60;99.90;;;;;;5012028;28;20168;-66
2021/11/29 12:37:26;;;;;;;10.53;9.83;;;4.70;99.90;;;;;;5025890;28;20180;-66
2021/11/29 12:40:17;;;;;;;9.07;8.53;;;4.70;99.90;;;;;;5031515;28;20183;-66